Time;durP1;ratioP1;P1;durP2;ratioP2;P2;SDS_P1;SDS_P2;PMS_P1;PMS_P2;Temp;Humidity;BMP_temperature;BMP_pressure;BME280_temperature;BME280_humidity;BME280_pressure;Samples;Min_cycle;Max_cycle;Signal;HPM_P1;HPM_P2
2021/12/09 00:02:37;;;;;;;15.03;8.77;;;;;;;-3.19;100.00;100055.09;20891404;28;20230;-71
2021/12/09 00:12:41;;;;;;;14.10;9.60;;;;;;;-3.24;100.00;100050.81;20891148;28;20315;-71
2021/12/09 00:22:44;;;;;;;16.60;11.27;;;;;;;-3.43;100.00;100048.44;20888686;28;20255;-71
2021/12/09 00:42:45;;;;;;;15.33;9.70;;;;;;;-3.69;100.00;100071.34;21156367;27;20300;-62
2021/12/09 00:52:49;;;;;;;17.73;10.43;;;;;;;-3.69;100.00;100066.13;21149905;27;20241;-69
2021/12/09 01:02:52;;;;;;;17.37;10.87;;;;;;;-3.73;100.00;100072.25;21140475;28;20304;-71
2021/12/09 01:12:56;;;;;;;14.83;9.73;;;;;;;-3.87;100.00;100084.59;21130731;27;20793;-70
2021/12/09 01:23:02;;;;;;;13.93;9.00;;;;;;;-3.91;100.00;100069.84;21162834;27;20225;-68
2021/12/09 01:33:06;;;;;;;14.70;9.63;;;;;;;-3.98;100.00;100073.41;21223057;27;20269;-67
2021/12/09 01:43:10;;;;;;;18.63;11.50;;;;;;;-4.18;100.00;100066.59;21223061;27;20271;-64
2021/12/09 01:53:13;;;;;;;18.47;11.93;;;;;;;-4.44;100.00;100048.59;21169100;27;20250;-65
2021/12/09 02:03:17;;;;;;;18.13;11.03;;;;;;;-4.36;100.00;100040.72;21164643;27;20215;-68
2021/12/09 02:23:22;;;;;;;20.33;13.10;;;;;;;-4.17;100.00;100051.84;21069639;27;20575;-70
2021/12/09 02:33:26;;;;;;;21.63;13.97;;;;;;;-4.16;100.00;100017.97;21046291;28;20230;-64
2021/12/09 02:43:30;;;;;;;24.20;14.67;;;;;;;-4.13;100.00;99997.09;21050288;28;20258;-67
2021/12/09 02:53:35;;;;;;;22.80;14.90;;;;;;;-4.15;100.00;99978.00;21054001;28;20688;-63
2021/12/09 03:03:45;;;;;;;22.93;14.33;;;;;;;-4.23;100.00;99985.06;21055469;28;20250;-64
2021/12/09 03:13:51;;;;;;;22.47;13.40;;;;;;;-4.27;100.00;99982.47;21053216;28;20339;-60
2021/12/09 03:23:56;;;;;;;20.77;13.33;;;;;;;-4.22;100.00;99996.31;21069572;28;20280;-66
2021/12/09 03:34:00;;;;;;;23.50;14.57;;;;;;;-4.21;100.00;99992.81;20999695;28;20246;-62
2021/12/09 03:44:04;;;;;;;20.93;13.17;;;;;;;-4.22;100.00;99980.69;20917298;28;20248;-66
2021/12/09 03:54:09;;;;;;;19.73;13.07;;;;;;;-4.28;100.00;99991.16;20912905;28;20319;-72
2021/12/09 04:04:14;;;;;;;23.30;13.90;;;;;;;-4.19;100.00;100004.97;20911104;28;20326;-72
2021/12/09 05:04:04;;;;;;;16.03;11.87;;;;;;;-3.91;100.00;100017.72;20990982;27;20889;-68
2021/12/09 05:14:07;;;;;;;16.93;11.67;;;;;;;-3.74;100.00;100020.97;20974110;28;20215;-60
2021/12/09 05:24:12;;;;;;;14.70;10.00;;;;;;;-3.72;100.00;100009.66;20972172;28;20218;-69
2021/12/09 05:34:17;;;;;;;14.73;10.33;;;;;;;-3.70;100.00;100001.81;20971520;28;20227;-60
2021/12/09 05:44:21;;;;;;;18.10;10.97;;;;;;;-3.63;100.00;100029.56;20994891;27;20222;-61
2021/12/09 05:54:24;;;;;;;15.23;11.27;;;;;;;-3.53;100.00;100019.91;21053486;27;20321;-60
2021/12/09 06:04:27;;;;;;;17.73;12.43;;;;;;;-3.56;100.00;100007.75;21054308;27;20251;-60
2021/12/09 06:14:32;;;;;;;16.80;11.40;;;;;;;-3.62;100.00;99999.97;21002331;27;20231;-63
2021/12/09 06:24:35;;;;;;;14.53;11.13;;;;;;;-3.55;100.00;99996.44;20996845;28;20263;-61
2021/12/09 06:44:36;;;;;;;53.33;40.73;;;;;;;-3.48;100.00;100038.94;21066148;27;20625;-72
2021/12/09 06:54:39;;;;;;;51.73;33.27;;;;;;;-3.28;100.00;100034.34;21058136;27;20226;-72
2021/12/09 07:04:42;;;;;;;27.30;20.53;;;;;;;-3.23;100.00;100040.34;21056251;27;20225;-71
2021/12/09 07:14:45;;;;;;;28.73;16.40;;;;;;;-3.01;100.00;100046.16;21055623;27;20313;-71
2021/12/09 07:24:49;;;;;;;26.20;15.10;;;;;;;-2.97;100.00;100045.22;21056329;27;20234;-72
2021/12/09 07:34:53;;;;;;;23.57;15.73;;;;;;;-2.83;100.00;100051.13;21055043;27;20243;-72
2021/12/09 07:44:56;;;;;;;16.93;13.20;;;;;;;-2.74;100.00;100051.00;21054469;27;20644;-70
2021/12/09 07:54:59;;;;;;;22.97;15.20;;;;;;;-2.57;100.00;100038.56;21002781;27;20532;-67
2021/12/09 08:05:04;;;;;;;18.13;13.70;;;;;;;-2.59;100.00;100019.41;20996762;28;20306;-69
2021/12/09 08:15:09;;;;;;;20.03;13.57;;;;;;;-2.51;100.00;100019.28;20996094;28;20263;-68
2021/12/09 08:25:15;;;;;;;18.90;13.93;;;;;;;-2.56;100.00;100035.06;20995043;28;20273;-59
2021/12/09 08:35:19;;;;;;;27.03;14.83;;;;;;;-2.31;100.00;100043.34;20976602;28;20231;-72
2021/12/09 08:45:23;;;;;;;29.60;18.20;;;;;;;-1.90;100.00;100079.22;20993530;28;20238;-58
2021/12/09 08:55:26;;;;;;;36.43;21.50;;;;;;;-1.68;100.00;100073.59;20992623;28;20318;-71
2021/12/09 09:05:30;;;;;;;17.13;13.27;;;;;;;-1.56;100.00;100057.66;20973226;28;20219;-60
2021/12/09 09:15:36;;;;;;;20.50;14.40;;;;;;;-1.52;100.00;100064.59;20990951;28;20322;-58
2021/12/09 09:25:41;;;;;;;51.43;23.17;;;;;;;-1.40;100.00;100087.91;20988651;28;20638;-67
2021/12/09 09:35:45;;;;;;;30.20;20.20;;;;;;;-1.40;100.00;100066.97;20988897;28;20257;-57
2021/12/09 09:45:48;;;;;;;20.83;16.33;;;;;;;-1.34;100.00;100045.91;21020602;28;20254;-60
2021/12/09 09:55:52;;;;;;;35.70;22.07;;;;;;;-1.18;100.00;100034.22;21002975;28;20976;-66
2021/12/09 10:05:58;;;;;;;18.40;14.10;;;;;;;-1.46;100.00;99978.13;20986230;28;20704;-67
2021/12/09 10:16:05;;;;;;;35.73;19.93;;;;;;;-1.13;100.00;100023.66;20986333;28;20245;-63
2021/12/09 10:26:17;;;;;;;25.87;17.80;;;;;;;-0.93;100.00;99997.03;20985230;28;20663;-68
2021/12/09 10:36:39;;;;;;;19.10;13.70;;;;;;;-0.91;100.00;100013.56;20932449;28;20239;-66
2021/12/09 10:46:52;;;;;;;25.43;16.37;;;;;;;-0.86;100.00;100032.66;20886544;28;20678;-63
2021/12/09 10:56:55;;;;;;;18.50;14.60;;;;;;;-0.92;100.00;100009.22;20907241;28;20713;-60
2021/12/09 11:07:00;;;;;;;20.70;14.93;;;;;;;-0.88;100.00;99971.59;20938486;28;20238;-63
2021/12/09 11:17:05;;;;;;;18.30;14.17;;;;;;;-0.92;100.00;99957.69;20936898;28;20239;-63
2021/12/09 11:27:29;;;;;;;25.70;17.20;;;;;;;-0.85;100.00;99947.97;20944651;28;20227;-68
2021/12/09 11:37:40;;;;;;;22.50;14.70;;;;;;;-0.79;100.00;99937.31;20953778;28;20230;-61
2021/12/09 11:47:46;;;;;;;18.53;14.07;;;;;;;-0.80;100.00;99925.97;20971125;28;20222;-65
2021/12/09 11:57:55;;;;;;;22.90;16.03;;;;;;;-0.96;100.00;99913.28;20951769;28;20238;-61
2021/12/09 12:18:54;;;;;;;20.87;14.13;;;;;;;-0.66;100.00;99867.13;20949184;28;20222;-66
2021/12/09 12:29:24;;;;;;;18.20;13.07;;;;;;;-0.58;100.00;99881.75;20947076;28;20219;-68
2021/12/09 12:39:56;;;;;;;18.77;13.73;;;;;;;-0.60;100.00;99880.06;20945942;28;20333;-64
2021/12/09 12:50:10;;;;;;;19.00;13.93;;;;;;;-0.77;100.00;99888.38;20950099;28;20248;-65
2021/12/09 13:00:42;;;;;;;21.40;14.93;;;;;;;-0.89;100.00;99857.25;20917678;28;20304;-68
2021/12/09 13:21:34;;;;;;;22.50;14.93;;;;;;;-1.07;100.00;99879.50;20940102;28;20238;-67
2021/12/09 13:31:57;;;;;;;29.40;18.23;;;;;;;-0.97;100.00;99875.78;20942420;28;20313;-60
2021/12/09 14:03:11;;;;;;;32.77;16.30;;;;;;;-1.32;100.00;99874.00;20938707;28;20231;-68
2021/12/09 14:13:18;;;;;;;22.40;15.47;;;;;;;-1.22;100.00;99888.59;20937485;28;20230;-65
2021/12/09 14:23:21;;;;;;;23.83;15.40;;;;;;;-1.15;100.00;99887.56;20936492;28;20237;-65
2021/12/09 14:33:25;;;;;;;29.93;17.47;;;;;;;-1.13;100.00;99884.91;20938335;28;20313;-68
2021/12/09 14:43:28;;;;;;;22.00;15.03;;;;;;;-1.23;100.00;99884.25;20967605;28;20226;-66
2021/12/09 14:53:54;;;;;;;26.53;15.63;;;;;;;-1.25;100.00;99891.28;20938801;28;20234;-60
2021/12/09 15:04:03;;;;;;;21.13;14.30;;;;;;;-1.23;100.00;99868.56;20947147;28;20238;-61
2021/12/09 15:14:19;;;;;;;20.57;13.90;;;;;;;-1.17;100.00;99884.09;20937030;28;20233;-65
2021/12/09 15:24:22;;;;;;;23.53;15.17;;;;;;;-1.26;100.00;99860.78;20952653;28;20222;-63
2021/12/09 15:34:31;;;;;;;25.40;15.63;;;;;;;-1.39;100.00;99846.25;20953290;28;20306;-64
2021/12/09 15:44:38;;;;;;;25.33;16.40;;;;;;;-1.43;100.00;99865.53;20951116;28;20233;-61
2021/12/09 15:54:52;;;;;;;30.80;18.30;;;;;;;-1.55;100.00;99822.19;20952505;28;20313;-66
2021/12/09 16:04:55;;;;;;;26.33;15.83;;;;;;;-1.57;100.00;99851.91;20952219;28;20219;-67
2021/12/09 16:15:01;;;;;;;26.13;16.00;;;;;;;-1.48;100.00;99841.25;20945522;28;20223;-65
2021/12/09 16:25:15;;;;;;;25.67;14.97;;;;;;;-1.40;100.00;99848.91;20927768;28;20788;-67
2021/12/09 16:35:24;;;;;;;26.03;15.57;;;;;;;-1.39;100.00;99841.00;20964877;27;20243;-64
2021/12/09 16:45:32;;;;;;;31.60;18.27;;;;;;;-1.47;100.00;99853.44;20869607;28;20455;-62
2021/12/09 16:55:36;;;;;;;34.80;19.43;;;;;;;-1.53;100.00;99858.78;20973687;27;20225;-68
2021/12/09 17:05:39;;;;;;;41.03;24.63;;;;;;;-1.55;100.00;99842.25;20961310;27;21483;-67
2021/12/09 17:15:44;;;;;;;51.17;27.57;;;;;;;-1.70;100.00;99829.53;20961921;27;20235;-66
2021/12/09 17:25:48;;;;;;;41.03;21.33;;;;;;;-1.73;100.00;99834.84;20962663;27;20235;-67
2021/12/09 17:35:51;;;;;;;33.43;20.13;;;;;;;-1.76;100.00;99842.75;21056705;27;20229;-70
2021/12/09 17:45:55;;;;;;;33.20;20.33;;;;;;;-1.73;100.00;99824.38;20985813;27;20720;-65
2021/12/09 18:05:55;;;;;;;29.73;18.30;;;;;;;-1.69;100.00;99807.72;20823361;27;20582;-65
2021/12/09 18:16:05;;;;;;;33.37;19.70;;;;;;;-1.73;100.00;99799.09;20811442;28;20286;-66
2021/12/09 18:26:10;;;;;;;33.53;17.67;;;;;;;-1.74;100.00;99783.44;20927414;28;20226;-66
2021/12/09 18:36:19;;;;;;;30.23;18.93;;;;;;;-1.71;100.00;99791.22;20893976;28;20239;-69
2021/12/09 18:46:24;;;;;;;34.70;19.43;;;;;;;-1.69;100.00;99785.03;20901560;28;20310;-63
2021/12/09 19:06:23;;;;;;;28.87;18.07;;;;;;;-1.58;100.00;99797.88;20924333;27;20555;-71
2021/12/09 19:16:37;;;;;;;32.93;18.23;;;;;;;-1.52;100.00;99809.03;20911213;28;20234;-69
2021/12/09 19:26:43;;;;;;;27.23;16.53;;;;;;;-1.47;100.00;99793.25;20911531;28;20238;-61
2021/12/09 19:36:49;;;;;;;27.17;16.63;;;;;;;-1.43;100.00;99784.41;20911795;28;20239;-60
2021/12/09 19:46:57;;;;;;;27.90;16.43;;;;;;;-1.39;100.00;99762.50;20907773;28;20234;-68
2021/12/09 19:57:01;;;;;;;23.20;15.30;;;;;;;-1.45;100.00;99731.28;20889070;28;20389;-60
2021/12/09 20:07:05;;;;;;;24.80;15.60;;;;;;;-1.38;100.00;99738.06;20903185;28;20615;-61
2021/12/09 20:17:10;;;;;;;26.30;16.90;;;;;;;-1.39;100.00;99715.41;20855754;28;20319;-68
2021/12/09 20:27:13;;;;;;;28.10;17.27;;;;;;;-1.47;100.00;99685.97;20836197;28;20351;-66
2021/12/09 20:37:18;;;;;;;30.03;17.23;;;;;;;-1.42;100.00;99685.84;20849461;28;21862;-64
2021/12/09 20:47:22;;;;;;;28.23;17.23;;;;;;;-1.35;100.00;99695.28;20850111;28;20413;-60
2021/12/09 20:57:26;;;;;;;25.50;15.23;;;;;;;-1.32;100.00;99688.19;20848688;28;20366;-64
2021/12/09 21:07:31;;;;;;;26.40;16.17;;;;;;;-1.31;100.00;99658.50;20849554;28;20815;-61
2021/12/09 21:17:35;;;;;;;22.20;15.07;;;;;;;-1.22;100.00;99658.25;20843129;28;20727;-66
2021/12/09 21:27:39;;;;;;;24.87;15.93;;;;;;;-1.26;100.00;99643.53;20856137;28;20693;-64
2021/12/09 21:37:46;;;;;;;26.60;17.33;;;;;;;-1.22;100.00;99629.47;20858246;28;20231;-64
2021/12/09 21:47:51;;;;;;;24.90;15.73;;;;;;;-1.18;100.00;99607.53;20854578;28;20311;-66
2021/12/09 21:57:54;;;;;;;26.27;17.27;;;;;;;-1.18;100.00;99594.44;20856648;28;21599;-63
2021/12/09 22:07:58;;;;;;;24.83;15.30;;;;;;;-1.06;100.00;99610.69;20854924;28;20228;-66
2021/12/09 22:18:01;;;;;;;26.80;16.03;;;;;;;-0.97;100.00;99592.13;20851634;28;20228;-65
2021/12/09 22:28:05;;;;;;;22.57;14.93;;;;;;;-0.90;100.00;99572.72;20821432;28;20771;-64
2021/12/09 22:38:08;;;;;;;26.87;15.90;;;;;;;-0.88;100.00;99563.03;20850759;28;20249;-66
2021/12/09 22:48:15;;;;;;;24.03;15.27;;;;;;;-0.83;100.00;99548.03;20892670;28;20319;-65
2021/12/09 22:58:20;;;;;;;23.73;15.07;;;;;;;-0.80;100.00;99542.72;20901927;28;20259;-64
2021/12/09 23:08:26;;;;;;;24.70;15.53;;;;;;;-0.75;100.00;99515.50;20884744;28;20227;-65
2021/12/09 23:18:31;;;;;;;26.17;16.07;;;;;;;-0.69;100.00;99538.00;20902012;28;20600;-62
2021/12/09 23:28:38;;;;;;;21.80;14.27;;;;;;;-0.63;100.00;99543.06;20894710;28;20261;-64
2021/12/09 23:38:43;;;;;;;25.37;15.63;;;;;;;-0.59;100.00;99531.56;20900947;28;20728;-66
2021/12/09 23:48:48;;;;;;;23.70;14.63;;;;;;;-0.56;100.00;99528.00;20910057;28;20302;-66
2021/12/09 23:58:52;;;;;;;27.63;16.80;;;;;;;-0.58;100.00;99501.84;20916340;28;20224;-67
